sensor_id;sensor_type;location;lat;lon;timestamp;temperature;humidity
36206;DHT22;22242;48.796;9.930;2024-02-16T00:02:05;12.80;99.90
36206;DHT22;22242;48.796;9.930;2024-02-16T00:04:32;12.80;99.90
36206;DHT22;22242;48.796;9.930;2024-02-16T00:06:59;12.80;99.90
36206;DHT22;22242;48.796;9.930;2024-02-16T00:09:26;12.80;99.90
36206;DHT22;22242;48.796;9.930;2024-02-16T00:11:55;12.80;99.90
36206;DHT22;22242;48.796;9.930;2024-02-16T00:14:21;12.90;99.90
36206;DHT22;22242;48.796;9.930;2024-02-16T00:16:48;12.70;99.90
36206;DHT22;22242;48.796;9.930;2024-02-16T00:19:15;12.70;99.90
36206;DHT22;22242;48.796;9.930;2024-02-16T00:21:42;12.40;99.90
36206;DHT22;22242;48.796;9.930;2024-02-16T00:24:09;12.30;99.90
36206;DHT22;22242;48.796;9.930;2024-02-16T00:26:36;12.30;99.90
36206;DHT22;22242;48.796;9.930;2024-02-16T00:29:06;12.30;99.90
36206;DHT22;22242;48.796;9.930;2024-02-16T00:31:33;12.20;99.90
36206;DHT22;22242;48.796;9.930;2024-02-16T00:34:00;12.30;99.90
36206;DHT22;22242;48.796;9.930;2024-02-16T00:36:26;12.20;99.90
36206;DHT22;22242;48.796;9.930;2024-02-16T00:38:56;12.30;99.90
36206;DHT22;22242;48.796;9.930;2024-02-16T00:41:23;12.20;99.90
36206;DHT22;22242;48.796;9.930;2024-02-16T00:43:50;12.30;99.90
36206;DHT22;22242;48.796;9.930;2024-02-16T00:46:19;12.10;99.90
36206;DHT22;22242;48.796;9.930;2024-02-16T00:48:48;12.00;99.90
36206;DHT22;22242;48.796;9.930;2024-02-16T00:51:15;12.00;99.90
36206;DHT22;22242;48.796;9.930;2024-02-16T00:53:42;11.90;99.90
36206;DHT22;22242;48.796;9.930;2024-02-16T00:56:09;11.90;99.90
36206;DHT22;22242;48.796;9.930;2024-02-16T00:58:39;12.00;99.90
36206;DHT22;22242;48.796;9.930;2024-02-16T01:01:07;11.90;99.90
36206;DHT22;22242;48.796;9.930;2024-02-16T01:03:37;11.70;99.90
36206;DHT22;22242;48.796;9.930;2024-02-16T01:06:05;11.50;99.90
36206;DHT22;22242;48.796;9.930;2024-02-16T01:08:32;11.20;99.90
36206;DHT22;22242;48.796;9.930;2024-02-16T01:10:59;11.10;99.90
36206;DHT22;22242;48.796;9.930;2024-02-16T01:13:26;11.00;99.90
36206;DHT22;22242;48.796;9.930;2024-02-16T01:15:52;10.80;99.90
36206;DHT22;22242;48.796;9.930;2024-02-16T01:18:19;10.70;99.90
36206;DHT22;22242;48.796;9.930;2024-02-16T01:20:47;10.40;99.90
36206;DHT22;22242;48.796;9.930;2024-02-16T01:23:14;10.30;99.90
36206;DHT22;22242;48.796;9.930;2024-02-16T01:25:41;10.20;99.90
36206;DHT22;22242;48.796;9.930;2024-02-16T01:28:08;10.10;99.90
36206;DHT22;22242;48.796;9.930;2024-02-16T01:30:37;10.10;99.90
36206;DHT22;22242;48.796;9.930;2024-02-16T01:33:04;10.10;99.90
36206;DHT22;22242;48.796;9.930;2024-02-16T01:35:31;10.10;99.90
36206;DHT22;22242;48.796;9.930;2024-02-16T01:37:59;10.00;99.90
36206;DHT22;22242;48.796;9.930;2024-02-16T01:40:27;10.00;99.90
36206;DHT22;22242;48.796;9.930;2024-02-16T01:42:54;10.00;99.90
36206;DHT22;22242;48.796;9.930;2024-02-16T01:45:21;10.00;99.90
36206;DHT22;22242;48.796;9.930;2024-02-16T01:47:49;10.00;99.90
36206;DHT22;22242;48.796;9.930;2024-02-16T01:50:18;10.00;99.90
36206;DHT22;22242;48.796;9.930;2024-02-16T01:52:48;10.10;99.90
36206;DHT22;22242;48.796;9.930;2024-02-16T01:55:16;10.00;99.90
36206;DHT22;22242;48.796;9.930;2024-02-16T01:57:45;10.00;99.90
36206;DHT22;22242;48.796;9.930;2024-02-16T02:00:13;10.00;99.90
36206;DHT22;22242;48.796;9.930;2024-02-16T02:02:44;9.90;99.90
36206;DHT22;22242;48.796;9.930;2024-02-16T02:05:12;9.80;99.90
36206;DHT22;22242;48.796;9.930;2024-02-16T02:07:40;9.80;99.90
36206;DHT22;22242;48.796;9.930;2024-02-16T02:10:08;9.90;99.90
36206;DHT22;22242;48.796;9.930;2024-02-16T02:12:39;9.80;99.90
36206;DHT22;22242;48.796;9.930;2024-02-16T02:15:07;9.70;99.90
36206;DHT22;22242;48.796;9.930;2024-02-16T02:17:34;9.70;99.90
36206;DHT22;22242;48.796;9.930;2024-02-16T02:20:02;9.60;99.90
36206;DHT22;22242;48.796;9.930;2024-02-16T02:22:31;9.60;99.90
36206;DHT22;22242;48.796;9.930;2024-02-16T02:24:57;9.60;99.90
36206;DHT22;22242;48.796;9.930;2024-02-16T02:27:25;9.60;99.90
36206;DHT22;22242;48.796;9.930;2024-02-16T02:29:52;9.70;99.90
36206;DHT22;22242;48.796;9.930;2024-02-16T02:32:18;9.70;99.90
36206;DHT22;22242;48.796;9.930;2024-02-16T02:34:45;9.70;99.90
36206;DHT22;22242;48.796;9.930;2024-02-16T02:37:12;9.60;99.90
36206;DHT22;22242;48.796;9.930;2024-02-16T02:39:40;9.70;99.90
36206;DHT22;22242;48.796;9.930;2024-02-16T02:42:07;9.70;99.90
36206;DHT22;22242;48.796;9.930;2024-02-16T02:44:35;9.50;99.90
36206;DHT22;22242;48.796;9.930;2024-02-16T02:47:01;9.40;99.90
36206;DHT22;22242;48.796;9.930;2024-02-16T02:49:28;9.40;99.90
36206;DHT22;22242;48.796;9.930;2024-02-16T02:51:55;9.40;99.90
36206;DHT22;22242;48.796;9.930;2024-02-16T02:54:22;9.50;99.90
36206;DHT22;22242;48.796;9.930;2024-02-16T02:56:50;9.40;99.90
36206;DHT22;22242;48.796;9.930;2024-02-16T02:59:17;9.30;99.90
36206;DHT22;22242;48.796;9.930;2024-02-16T03:01:44;9.30;99.90
36206;DHT22;22242;48.796;9.930;2024-02-16T03:04:11;9.30;99.90
36206;DHT22;22242;48.796;9.930;2024-02-16T03:06:38;9.20;99.90
36206;DHT22;22242;48.796;9.930;2024-02-16T03:09:05;9.20;99.90
36206;DHT22;22242;48.796;9.930;2024-02-16T03:11:32;9.10;99.90
36206;DHT22;22242;48.796;9.930;2024-02-16T03:14:00;9.10;99.90
36206;DHT22;22242;48.796;9.930;2024-02-16T03:16:27;9.10;99.90
36206;DHT22;22242;48.796;9.930;2024-02-16T03:18:54;9.10;99.90
36206;DHT22;22242;48.796;9.930;2024-02-16T03:21:21;9.10;99.90
36206;DHT22;22242;48.796;9.930;2024-02-16T03:23:48;9.10;99.90
36206;DHT22;22242;48.796;9.930;2024-02-16T03:26:15;9.00;99.90
36206;DHT22;22242;48.796;9.930;2024-02-16T03:28:44;9.00;99.90
36206;DHT22;22242;48.796;9.930;2024-02-16T03:31:21;9.00;99.90
36206;DHT22;22242;48.796;9.930;2024-02-16T03:33:49;9.00;99.90
36206;DHT22;22242;48.796;9.930;2024-02-16T03:36:17;9.00;99.90
36206;DHT22;22242;48.796;9.930;2024-02-16T03:38:45;8.90;99.90
36206;DHT22;22242;48.796;9.930;2024-02-16T03:41:13;8.90;99.90
36206;DHT22;22242;48.796;9.930;2024-02-16T03:43:41;8.80;99.90
36206;DHT22;22242;48.796;9.930;2024-02-16T03:46:09;8.70;99.90
36206;DHT22;22242;48.796;9.930;2024-02-16T03:48:37;8.70;99.90
36206;DHT22;22242;48.796;9.930;2024-02-16T03:51:04;8.70;99.90
36206;DHT22;22242;48.796;9.930;2024-02-16T03:53:31;8.70;99.90
36206;DHT22;22242;48.796;9.930;2024-02-16T03:55:58;8.70;99.90
36206;DHT22;22242;48.796;9.930;2024-02-16T03:58:25;8.60;99.90
36206;DHT22;22242;48.796;9.930;2024-02-16T04:00:52;8.60;99.90
36206;DHT22;22242;48.796;9.930;2024-02-16T04:03:19;8.70;99.90
36206;DHT22;22242;48.796;9.930;2024-02-16T04:05:47;8.90;99.90
36206;DHT22;22242;48.796;9.930;2024-02-16T04:08:15;9.00;99.90
36206;DHT22;22242;48.796;9.930;2024-02-16T04:10:42;9.30;99.90
36206;DHT22;22242;48.796;9.930;2024-02-16T04:13:08;9.60;99.90
36206;DHT22;22242;48.796;9.930;2024-02-16T04:15:35;9.50;99.90
36206;DHT22;22242;48.796;9.930;2024-02-16T04:18:02;9.60;99.90
36206;DHT22;22242;48.796;9.930;2024-02-16T04:20:30;9.70;99.90
36206;DHT22;22242;48.796;9.930;2024-02-16T04:22:58;9.80;99.90
36206;DHT22;22242;48.796;9.930;2024-02-16T04:25:25;9.70;99.90
36206;DHT22;22242;48.796;9.930;2024-02-16T04:27:51;9.40;99.90
36206;DHT22;22242;48.796;9.930;2024-02-16T04:30:18;9.10;99.90
36206;DHT22;22242;48.796;9.930;2024-02-16T04:32:45;8.70;99.90
36206;DHT22;22242;48.796;9.930;2024-02-16T04:35:12;8.50;99.90
36206;DHT22;22242;48.796;9.930;2024-02-16T04:37:39;8.40;99.90
36206;DHT22;22242;48.796;9.930;2024-02-16T04:40:08;8.30;99.90
36206;DHT22;22242;48.796;9.930;2024-02-16T04:42:38;8.50;99.90
36206;DHT22;22242;48.796;9.930;2024-02-16T04:45:06;8.70;99.90
36206;DHT22;22242;48.796;9.930;2024-02-16T04:47:34;8.70;99.90
36206;DHT22;22242;48.796;9.930;2024-02-16T04:50:00;8.80;99.90
36206;DHT22;22242;48.796;9.930;2024-02-16T04:52:28;8.80;99.90
36206;DHT22;22242;48.796;9.930;2024-02-16T04:54:55;8.80;99.90
36206;DHT22;22242;48.796;9.930;2024-02-16T04:57:23;8.90;99.90
36206;DHT22;22242;48.796;9.930;2024-02-16T04:59:50;9.00;99.90
36206;DHT22;22242;48.796;9.930;2024-02-16T05:02:17;9.10;99.90
36206;DHT22;22242;48.796;9.930;2024-02-16T05:04:44;9.10;99.90
36206;DHT22;22242;48.796;9.930;2024-02-16T05:07:10;9.20;99.90
36206;DHT22;22242;48.796;9.930;2024-02-16T05:09:37;9.40;99.90
36206;DHT22;22242;48.796;9.930;2024-02-16T05:12:05;9.50;99.90
36206;DHT22;22242;48.796;9.930;2024-02-16T05:14:35;9.50;99.90
36206;DHT22;22242;48.796;9.930;2024-02-16T05:17:02;9.60;99.90
36206;DHT22;22242;48.796;9.930;2024-02-16T05:19:32;9.60;99.90
36206;DHT22;22242;48.796;9.930;2024-02-16T05:22:00;9.50;99.90
36206;DHT22;22242;48.796;9.930;2024-02-16T05:24:27;9.50;99.90
36206;DHT22;22242;48.796;9.930;2024-02-16T05:26:53;9.40;99.90
36206;DHT22;22242;48.796;9.930;2024-02-16T05:29:21;9.20;99.90
36206;DHT22;22242;48.796;9.930;2024-02-16T05:31:52;9.20;99.90
36206;DHT22;22242;48.796;9.930;2024-02-16T05:34:19;9.20;99.90
36206;DHT22;22242;48.796;9.930;2024-02-16T05:36:45;9.20;99.90
36206;DHT22;22242;48.796;9.930;2024-02-16T05:39:13;9.30;99.90
36206;DHT22;22242;48.796;9.930;2024-02-16T05:41:52;9.60;99.90
36206;DHT22;22242;48.796;9.930;2024-02-16T05:44:19;9.80;99.90
36206;DHT22;22242;48.796;9.930;2024-02-16T05:46:46;10.10;99.90
36206;DHT22;22242;48.796;9.930;2024-02-16T05:49:15;10.20;99.90
36206;DHT22;22242;48.796;9.930;2024-02-16T05:51:42;10.00;99.90
36206;DHT22;22242;48.796;9.930;2024-02-16T05:54:26;9.50;99.90
36206;DHT22;22242;48.796;9.930;2024-02-16T05:56:52;9.00;99.90
36206;DHT22;22242;48.796;9.930;2024-02-16T05:59:18;8.60;99.90
36206;DHT22;22242;48.796;9.930;2024-02-16T06:01:45;8.40;99.90
36206;DHT22;22242;48.796;9.930;2024-02-16T06:04:12;8.30;99.90
36206;DHT22;22242;48.796;9.930;2024-02-16T06:06:41;8.30;99.90
36206;DHT22;22242;48.796;9.930;2024-02-16T06:09:07;8.30;99.90
36206;DHT22;22242;48.796;9.930;2024-02-16T06:11:36;8.30;99.90
36206;DHT22;22242;48.796;9.930;2024-02-16T06:14:03;8.50;99.90
36206;DHT22;22242;48.796;9.930;2024-02-16T06:16:30;8.50;99.90
36206;DHT22;22242;48.796;9.930;2024-02-16T06:18:57;8.60;99.90
36206;DHT22;22242;48.796;9.930;2024-02-16T06:21:23;8.70;99.90
36206;DHT22;22242;48.796;9.930;2024-02-16T06:23:51;8.70;99.90
36206;DHT22;22242;48.796;9.930;2024-02-16T06:26:18;8.70;99.90
36206;DHT22;22242;48.796;9.930;2024-02-16T06:28:46;8.70;99.90
36206;DHT22;22242;48.796;9.930;2024-02-16T06:31:13;8.80;99.90
36206;DHT22;22242;48.796;9.930;2024-02-16T06:33:41;8.90;99.90
36206;DHT22;22242;48.796;9.930;2024-02-16T06:36:08;8.90;99.90
36206;DHT22;22242;48.796;9.930;2024-02-16T06:38:35;8.90;99.90
36206;DHT22;22242;48.796;9.930;2024-02-16T06:41:04;8.90;99.90
36206;DHT22;22242;48.796;9.930;2024-02-16T06:43:31;8.90;99.90
36206;DHT22;22242;48.796;9.930;2024-02-16T06:45:58;8.80;99.90
36206;DHT22;22242;48.796;9.930;2024-02-16T06:48:24;8.90;99.90
36206;DHT22;22242;48.796;9.930;2024-02-16T06:50:51;8.90;99.90
36206;DHT22;22242;48.796;9.930;2024-02-16T06:53:19;8.80;99.90
36206;DHT22;22242;48.796;9.930;2024-02-16T06:55:46;8.80;99.90
36206;DHT22;22242;48.796;9.930;2024-02-16T06:58:14;8.80;99.90
36206;DHT22;22242;48.796;9.930;2024-02-16T07:00:41;8.80;99.90
36206;DHT22;22242;48.796;9.930;2024-02-16T07:03:08;8.70;99.90
36206;DHT22;22242;48.796;9.930;2024-02-16T07:05:35;8.80;99.90
36206;DHT22;22242;48.796;9.930;2024-02-16T07:08:02;8.80;99.90
36206;DHT22;22242;48.796;9.930;2024-02-16T07:10:30;8.90;99.90
36206;DHT22;22242;48.796;9.930;2024-02-16T07:12:56;8.90;99.90
36206;DHT22;22242;48.796;9.930;2024-02-16T07:15:25;9.00;99.90
36206;DHT22;22242;48.796;9.930;2024-02-16T07:17:52;9.20;99.90
36206;DHT22;22242;48.796;9.930;2024-02-16T07:20:19;9.30;99.90
36206;DHT22;22242;48.796;9.930;2024-02-16T07:22:46;9.30;99.90
36206;DHT22;22242;48.796;9.930;2024-02-16T07:25:12;9.30;99.90
36206;DHT22;22242;48.796;9.930;2024-02-16T07:27:40;9.40;99.90
36206;DHT22;22242;48.796;9.930;2024-02-16T07:30:07;9.30;99.90
36206;DHT22;22242;48.796;9.930;2024-02-16T07:32:37;9.40;99.90
36206;DHT22;22242;48.796;9.930;2024-02-16T07:35:04;9.40;99.90
36206;DHT22;22242;48.796;9.930;2024-02-16T07:37:32;9.40;99.90
36206;DHT22;22242;48.796;9.930;2024-02-16T07:39:59;9.50;99.90
36206;DHT22;22242;48.796;9.930;2024-02-16T07:42:25;9.60;99.90
36206;DHT22;22242;48.796;9.930;2024-02-16T07:44:53;9.50;99.90
36206;DHT22;22242;48.796;9.930;2024-02-16T07:47:20;9.70;99.90
36206;DHT22;22242;48.796;9.930;2024-02-16T07:49:48;9.70;99.90
36206;DHT22;22242;48.796;9.930;2024-02-16T07:52:15;10.10;99.90
36206;DHT22;22242;48.796;9.930;2024-02-16T07:54:41;11.00;99.90
36206;DHT22;22242;48.796;9.930;2024-02-16T07:57:08;11.70;99.90
36206;DHT22;22242;48.796;9.930;2024-02-16T07:59:35;12.40;99.90
36206;DHT22;22242;48.796;9.930;2024-02-16T08:02:02;12.60;99.90
36206;DHT22;22242;48.796;9.930;2024-02-16T08:04:29;13.10;99.90
36206;DHT22;22242;48.796;9.930;2024-02-16T08:06:57;13.60;99.90
36206;DHT22;22242;48.796;9.930;2024-02-16T08:09:26;13.60;99.90
36206;DHT22;22242;48.796;9.930;2024-02-16T08:11:53;14.40;99.90
36206;DHT22;22242;48.796;9.930;2024-02-16T08:14:20;13.90;99.90
36206;DHT22;22242;48.796;9.930;2024-02-16T08:16:47;15.20;99.90
36206;DHT22;22242;48.796;9.930;2024-02-16T08:19:14;16.80;99.90
36206;DHT22;22242;48.796;9.930;2024-02-16T08:21:41;17.90;99.90
36206;DHT22;22242;48.796;9.930;2024-02-16T08:24:09;18.50;99.90
36206;DHT22;22242;48.796;9.930;2024-02-16T08:26:36;18.50;99.90
36206;DHT22;22242;48.796;9.930;2024-02-16T08:29:03;19.60;99.90
36206;DHT22;22242;48.796;9.930;2024-02-16T08:31:29;20.40;97.30
36206;DHT22;22242;48.796;9.930;2024-02-16T08:33:56;20.50;97.30
36206;DHT22;22242;48.796;9.930;2024-02-16T08:36:23;20.40;95.70
36206;DHT22;22242;48.796;9.930;2024-02-16T08:38:54;21.90;93.80
36206;DHT22;22242;48.796;9.930;2024-02-16T08:41:23;22.60;92.30
36206;DHT22;22242;48.796;9.930;2024-02-16T08:43:50;21.70;91.60
36206;DHT22;22242;48.796;9.930;2024-02-16T08:46:17;22.30;90.70
36206;DHT22;22242;48.796;9.930;2024-02-16T08:48:44;21.60;91.40
36206;DHT22;22242;48.796;9.930;2024-02-16T08:51:11;21.50;91.40
36206;DHT22;22242;48.796;9.930;2024-02-16T08:53:39;22.00;90.90
36206;DHT22;22242;48.796;9.930;2024-02-16T08:56:09;21.70;90.00
36206;DHT22;22242;48.796;9.930;2024-02-16T08:58:38;21.20;90.30
36206;DHT22;22242;48.796;9.930;2024-02-16T09:01:05;21.80;90.50
36206;DHT22;22242;48.796;9.930;2024-02-16T09:03:32;20.70;90.20
36206;DHT22;22242;48.796;9.930;2024-02-16T09:06:04;19.60;92.20
36206;DHT22;22242;48.796;9.930;2024-02-16T09:08:31;19.60;92.40
36206;DHT22;22242;48.796;9.930;2024-02-16T09:10:59;19.70;92.60
36206;DHT22;22242;48.796;9.930;2024-02-16T09:13:25;18.50;93.90
36206;DHT22;22242;48.796;9.930;2024-02-16T09:15:54;18.10;94.40
36206;DHT22;22242;48.796;9.930;2024-02-16T09:18:20;17.60;94.80
36206;DHT22;22242;48.796;9.930;2024-02-16T09:20:47;17.20;95.90
36206;DHT22;22242;48.796;9.930;2024-02-16T09:23:14;16.90;96.30
36206;DHT22;22242;48.796;9.930;2024-02-16T09:25:41;16.70;96.10
36206;DHT22;22242;48.796;9.930;2024-02-16T09:28:09;16.90;95.70
36206;DHT22;22242;48.796;9.930;2024-02-16T09:30:36;16.50;96.10
36206;DHT22;22242;48.796;9.930;2024-02-16T09:33:05;16.20;95.90
36206;DHT22;22242;48.796;9.930;2024-02-16T09:35:32;15.80;97.20
36206;DHT22;22242;48.796;9.930;2024-02-16T09:37:59;15.70;98.40
36206;DHT22;22242;48.796;9.930;2024-02-16T09:40:26;15.50;99.10
36206;DHT22;22242;48.796;9.930;2024-02-16T09:42:53;15.60;98.80
36206;DHT22;22242;48.796;9.930;2024-02-16T09:45:20;15.60;97.40
36206;DHT22;22242;48.796;9.930;2024-02-16T09:47:48;15.50;97.10
36206;DHT22;22242;48.796;9.930;2024-02-16T09:50:17;15.60;96.60
36206;DHT22;22242;48.796;9.930;2024-02-16T09:52:47;15.60;96.80
36206;DHT22;22242;48.796;9.930;2024-02-16T09:55:15;15.60;96.00
36206;DHT22;22242;48.796;9.930;2024-02-16T09:57:42;15.60;96.30
36206;DHT22;22242;48.796;9.930;2024-02-16T10:00:10;15.50;95.90
36206;DHT22;22242;48.796;9.930;2024-02-16T10:02:40;15.50;96.60
36206;DHT22;22242;48.796;9.930;2024-02-16T10:05:13;15.60;96.40
36206;DHT22;22242;48.796;9.930;2024-02-16T10:07:42;15.60;95.90
36206;DHT22;22242;48.796;9.930;2024-02-16T10:10:20;15.60;96.10
36206;DHT22;22242;48.796;9.930;2024-02-16T10:12:47;15.70;96.80
36206;DHT22;22242;48.796;9.930;2024-02-16T10:15:19;15.80;95.50
36206;DHT22;22242;48.796;9.930;2024-02-16T10:17:57;15.90;96.00
36206;DHT22;22242;48.796;9.930;2024-02-16T10:20:24;15.80;96.00
36206;DHT22;22242;48.796;9.930;2024-02-16T10:23:04;15.80;96.00
36206;DHT22;22242;48.796;9.930;2024-02-16T10:25:30;15.80;95.60
36206;DHT22;22242;48.796;9.930;2024-02-16T10:27:58;16.00;95.70
36206;DHT22;22242;48.796;9.930;2024-02-16T10:30:29;16.20;96.30
36206;DHT22;22242;48.796;9.930;2024-02-16T10:32:57;16.10;95.60
36206;DHT22;22242;48.796;9.930;2024-02-16T10:35:25;16.30;95.50
36206;DHT22;22242;48.796;9.930;2024-02-16T10:37:52;16.20;96.10
36206;DHT22;22242;48.796;9.930;2024-02-16T10:40:23;16.40;95.70
36206;DHT22;22242;48.796;9.930;2024-02-16T10:42:50;16.50;95.80
36206;DHT22;22242;48.796;9.930;2024-02-16T10:45:17;16.90;95.30
36206;DHT22;22242;48.796;9.930;2024-02-16T10:47:45;16.80;94.80
36206;DHT22;22242;48.796;9.930;2024-02-16T10:50:12;16.80;95.80
36206;DHT22;22242;48.796;9.930;2024-02-16T10:52:41;16.60;96.10
36206;DHT22;22242;48.796;9.930;2024-02-16T10:55:10;16.60;96.10
36206;DHT22;22242;48.796;9.930;2024-02-16T10:57:39;16.90;97.30
36206;DHT22;22242;48.796;9.930;2024-02-16T11:00:10;16.80;97.40
36206;DHT22;22242;48.796;9.930;2024-02-16T11:02:56;16.60;96.40
36206;DHT22;22242;48.796;9.930;2024-02-16T11:05:34;16.70;97.40
36206;DHT22;22242;48.796;9.930;2024-02-16T11:08:02;16.80;97.10
36206;DHT22;22242;48.796;9.930;2024-02-16T11:10:29;17.10;96.60
36206;DHT22;22242;48.796;9.930;2024-02-16T11:13:02;17.20;95.70
36206;DHT22;22242;48.796;9.930;2024-02-16T11:15:31;17.20;96.40
36206;DHT22;22242;48.796;9.930;2024-02-16T11:18:00;17.20;96.40
36206;DHT22;22242;48.796;9.930;2024-02-16T11:20:27;17.10;97.00
36206;DHT22;22242;48.796;9.930;2024-02-16T11:23:05;17.20;96.10
36206;DHT22;22242;48.796;9.930;2024-02-16T11:25:32;17.10;96.80
36206;DHT22;22242;48.796;9.930;2024-02-16T11:28:01;17.40;97.00
36206;DHT22;22242;48.796;9.930;2024-02-16T11:30:32;17.90;95.60
36206;DHT22;22242;48.796;9.930;2024-02-16T11:32:59;18.10;95.40
36206;DHT22;22242;48.796;9.930;2024-02-16T11:35:26;17.90;94.80
36206;DHT22;22242;48.796;9.930;2024-02-16T11:37:55;17.80;94.80
36206;DHT22;22242;48.796;9.930;2024-02-16T11:40:22;17.80;95.90
36206;DHT22;22242;48.796;9.930;2024-02-16T11:42:56;17.40;96.50
36206;DHT22;22242;48.796;9.930;2024-02-16T11:45:25;17.40;96.10
36206;DHT22;22242;48.796;9.930;2024-02-16T11:48:02;17.70;96.10
36206;DHT22;22242;48.796;9.930;2024-02-16T11:50:28;17.80;96.20
36206;DHT22;22242;48.796;9.930;2024-02-16T11:52:56;18.10;96.20
36206;DHT22;22242;48.796;9.930;2024-02-16T11:55:23;17.90;95.50
36206;DHT22;22242;48.796;9.930;2024-02-16T11:57:49;17.90;95.80
36206;DHT22;22242;48.796;9.930;2024-02-16T12:00:17;17.80;97.00
36206;DHT22;22242;48.796;9.930;2024-02-16T12:02:45;17.70;96.00
36206;DHT22;22242;48.796;9.930;2024-02-16T12:05:14;17.20;97.00
36206;DHT22;22242;48.796;9.930;2024-02-16T12:07:40;16.80;96.90
36206;DHT22;22242;48.796;9.930;2024-02-16T12:10:08;16.90;97.50
36206;DHT22;22242;48.796;9.930;2024-02-16T12:12:36;17.00;97.50
36206;DHT22;22242;48.796;9.930;2024-02-16T12:15:05;17.20;97.30
36206;DHT22;22242;48.796;9.930;2024-02-16T12:17:33;17.30;96.60
36206;DHT22;22242;48.796;9.930;2024-02-16T12:20:02;17.30;97.00
36206;DHT22;22242;48.796;9.930;2024-02-16T12:22:30;17.00;97.30
36206;DHT22;22242;48.796;9.930;2024-02-16T12:24:57;16.90;97.70
36206;DHT22;22242;48.796;9.930;2024-02-16T12:27:23;16.90;98.00
36206;DHT22;22242;48.796;9.930;2024-02-16T12:29:50;16.80;97.70
36206;DHT22;22242;48.796;9.930;2024-02-16T12:32:18;17.00;97.70
36206;DHT22;22242;48.796;9.930;2024-02-16T12:34:45;17.20;98.10
36206;DHT22;22242;48.796;9.930;2024-02-16T12:37:13;17.20;97.10
36206;DHT22;22242;48.796;9.930;2024-02-16T12:39:40;17.20;96.60
36206;DHT22;22242;48.796;9.930;2024-02-16T12:42:07;17.20;96.20
36206;DHT22;22242;48.796;9.930;2024-02-16T12:44:33;17.40;96.70
36206;DHT22;22242;48.796;9.930;2024-02-16T12:47:00;17.20;97.00
36206;DHT22;22242;48.796;9.930;2024-02-16T12:49:27;17.20;97.40
36206;DHT22;22242;48.796;9.930;2024-02-16T12:51:54;17.10;96.90
36206;DHT22;22242;48.796;9.930;2024-02-16T12:54:22;17.40;97.60
36206;DHT22;22242;48.796;9.930;2024-02-16T12:56:49;17.10;99.00
36206;DHT22;22242;48.796;9.930;2024-02-16T12:59:17;16.90;98.00
36206;DHT22;22242;48.796;9.930;2024-02-16T13:01:44;16.80;97.90
36206;DHT22;22242;48.796;9.930;2024-02-16T13:04:11;16.80;98.30
36206;DHT22;22242;48.796;9.930;2024-02-16T13:06:46;16.90;98.10
36206;DHT22;22242;48.796;9.930;2024-02-16T13:09:13;16.80;98.50
36206;DHT22;22242;48.796;9.930;2024-02-16T13:11:41;16.80;98.70
36206;DHT22;22242;48.796;9.930;2024-02-16T13:14:08;16.80;99.60
36206;DHT22;22242;48.796;9.930;2024-02-16T13:16:35;16.60;99.90
36206;DHT22;22242;48.796;9.930;2024-02-16T13:19:02;16.20;99.90
36206;DHT22;22242;48.796;9.930;2024-02-16T13:21:29;16.30;99.90
36206;DHT22;22242;48.796;9.930;2024-02-16T13:23:56;16.20;99.90
36206;DHT22;22242;48.796;9.930;2024-02-16T13:26:23;16.20;99.90
36206;DHT22;22242;48.796;9.930;2024-02-16T13:28:51;16.20;99.90
36206;DHT22;22242;48.796;9.930;2024-02-16T13:31:18;16.20;99.90
36206;DHT22;22242;48.796;9.930;2024-02-16T13:33:45;16.30;99.90
36206;DHT22;22242;48.796;9.930;2024-02-16T13:36:12;16.30;99.90
36206;DHT22;22242;48.796;9.930;2024-02-16T13:38:38;16.30;99.90
36206;DHT22;22242;48.796;9.930;2024-02-16T13:41:05;16.20;99.90
36206;DHT22;22242;48.796;9.930;2024-02-16T13:43:32;16.20;99.90
36206;DHT22;22242;48.796;9.930;2024-02-16T13:46:00;16.20;99.90
36206;DHT22;22242;48.796;9.930;2024-02-16T13:48:27;16.10;99.90
36206;DHT22;22242;48.796;9.930;2024-02-16T13:50:56;16.10;99.90
36206;DHT22;22242;48.796;9.930;2024-02-16T13:53:23;16.00;99.90
36206;DHT22;22242;48.796;9.930;2024-02-16T13:55:50;15.90;99.90
36206;DHT22;22242;48.796;9.930;2024-02-16T13:58:16;15.80;99.90
36206;DHT22;22242;48.796;9.930;2024-02-16T14:00:43;16.00;99.90
36206;DHT22;22242;48.796;9.930;2024-02-16T14:03:14;15.90;99.90
36206;DHT22;22242;48.796;9.930;2024-02-16T14:05:41;15.90;99.90
36206;DHT22;22242;48.796;9.930;2024-02-16T14:08:10;15.80;99.90
36206;DHT22;22242;48.796;9.930;2024-02-16T14:10:38;15.60;99.90
36206;DHT22;22242;48.796;9.930;2024-02-16T14:13:05;15.50;99.90
36206;DHT22;22242;48.796;9.930;2024-02-16T14:15:32;15.50;99.90
36206;DHT22;22242;48.796;9.930;2024-02-16T14:17:58;15.40;99.90
36206;DHT22;22242;48.796;9.930;2024-02-16T14:20:27;15.30;99.90
36206;DHT22;22242;48.796;9.930;2024-02-16T14:22:54;15.40;99.90
36206;DHT22;22242;48.796;9.930;2024-02-16T14:25:22;15.30;99.90
36206;DHT22;22242;48.796;9.930;2024-02-16T14:27:51;15.20;99.90
36206;DHT22;22242;48.796;9.930;2024-02-16T14:30:17;15.20;99.90
36206;DHT22;22242;48.796;9.930;2024-02-16T14:32:45;15.10;99.90
36206;DHT22;22242;48.796;9.930;2024-02-16T14:35:11;15.10;99.90
36206;DHT22;22242;48.796;9.930;2024-02-16T14:37:40;15.00;99.90
36206;DHT22;22242;48.796;9.930;2024-02-16T14:40:07;15.00;99.90
36206;DHT22;22242;48.796;9.930;2024-02-16T14:42:36;14.90;99.90
36206;DHT22;22242;48.796;9.930;2024-02-16T14:45:06;14.90;99.90
36206;DHT22;22242;48.796;9.930;2024-02-16T14:47:35;14.80;99.90
36206;DHT22;22242;48.796;9.930;2024-02-16T14:50:01;14.80;99.90
36206;DHT22;22242;48.796;9.930;2024-02-16T14:52:29;14.80;99.90
36206;DHT22;22242;48.796;9.930;2024-02-16T14:54:57;14.80;99.90
36206;DHT22;22242;48.796;9.930;2024-02-16T14:57:25;14.60;99.90
36206;DHT22;22242;48.796;9.930;2024-02-16T14:59:52;14.60;99.90
36206;DHT22;22242;48.796;9.930;2024-02-16T15:02:21;14.70;99.90
36206;DHT22;22242;48.796;9.930;2024-02-16T15:04:48;14.60;99.90
36206;DHT22;22242;48.796;9.930;2024-02-16T15:07:14;14.60;99.90
36206;DHT22;22242;48.796;9.930;2024-02-16T15:09:43;14.50;99.90
36206;DHT22;22242;48.796;9.930;2024-02-16T15:12:11;14.50;99.90
36206;DHT22;22242;48.796;9.930;2024-02-16T15:14:38;14.50;99.90
36206;DHT22;22242;48.796;9.930;2024-02-16T15:17:05;14.40;99.90
36206;DHT22;22242;48.796;9.930;2024-02-16T15:19:31;14.40;99.90
36206;DHT22;22242;48.796;9.930;2024-02-16T15:21:58;14.40;99.90
36206;DHT22;22242;48.796;9.930;2024-02-16T15:24:25;14.30;99.90
36206;DHT22;22242;48.796;9.930;2024-02-16T15:26:52;14.40;99.90
36206;DHT22;22242;48.796;9.930;2024-02-16T15:29:20;14.40;99.90
36206;DHT22;22242;48.796;9.930;2024-02-16T15:31:47;14.30;99.90
36206;DHT22;22242;48.796;9.930;2024-02-16T15:34:14;14.20;99.90
36206;DHT22;22242;48.796;9.930;2024-02-16T15:36:41;14.20;99.90
36206;DHT22;22242;48.796;9.930;2024-02-16T15:39:07;14.20;99.90
36206;DHT22;22242;48.796;9.930;2024-02-16T15:41:36;14.20;99.90